Time;durP1;ratioP1;P1;durP2;ratioP2;P2;SDS_P1;SDS_P2;PMS_P1;PMS_P2;Temp;Humidity;BMP_temperature;BMP_pressure;BME280_temperature;BME280_humidity;BME280_pressure;Samples;Min_cycle;Max_cycle;Signal;HPM_P1;HPM_P2
2024/01/19 00:00:27;;;;;;;;;;;-3.70;1.00;;;;;;5046186;28;19905;-77
2024/01/19 00:08:59;;;;;;;;;;;-3.80;1.00;;;;;;5042590;28;20348;-77
2024/01/19 00:11:34;;;;;;;;;;;-3.70;1.00;;;;;;5044804;28;19944;-78
2024/01/19 00:17:02;;;;;;;;;;;-3.80;1.00;;;;;;5050328;28;20324;-78
2024/01/19 00:19:28;;;;;;;;;;;-3.90;1.00;;;;;;5044095;28;19952;-78
2024/01/19 00:21:53;;;;;;;;;;;-3.90;1.00;;;;;;5043370;28;19948;-77
2024/01/19 00:27:22;;;;;;;;;;;-3.90;1.00;;;;;;5051232;28;19912;-78
2024/01/19 00:32:50;;;;;;;;;;;-3.90;1.00;;;;;;5056276;28;19959;-77
2024/01/19 00:38:28;;;;;;;;;;;-3.90;1.00;;;;;;5042807;28;19912;-77
2024/01/19 00:53:05;;;;;;;;;;;-4.10;1.00;;;;;;5043773;28;19955;-81
2024/01/19 00:58:46;;;;;;;;;;;-4.10;1.00;;;;;;5039278;28;20039;-77
2024/01/19 01:04:14;;;;;;;;;;;-0.90;1.00;;;;;;5046004;28;20431;-77
2024/01/19 01:09:42;;;;;;;;;;;-4.30;1.00;;;;;;5050808;28;19912;-77
2024/01/19 01:21:21;;;;;;;;;;;-4.40;1.00;;;;;;5036778;28;19967;-81
2024/01/19 01:29:58;;;;;;;;;;;-4.60;1.00;;;;;;5055291;28;19912;-78
2024/01/19 01:35:26;;;;;;;;;;;-4.60;1.00;;;;;;5042496;28;19920;-77
2024/01/19 01:43:58;;;;;;;;;;;-4.60;1.00;;;;;;5052321;28;19911;-81
2024/01/19 01:46:27;;;;;;;;;;;-4.60;1.00;;;;;;5034550;28;19904;-82
2024/01/19 01:48:53;;;;;;;;;;;-4.70;1.00;;;;;;5050143;28;20344;-81
2024/01/19 01:54:28;;;;;;;;;;;-4.70;1.00;;;;;;5053228;28;20287;-81
2024/01/19 01:56:54;;;;;;;;;;;-4.70;1.00;;;;;;5042490;28;20396;-79
2024/01/19 02:02:23;;;;;;;;;;;-4.70;1.00;;;;;;5048520;28;20320;-78
2024/01/19 02:04:52;;;;;;;;;;;-4.70;1.00;;;;;;5047365;28;19940;-78
2024/01/19 02:10:22;;;;;;;;;;;-4.80;1.00;;;;;;5041858;28;19931;-77
2024/01/19 02:18:55;;;;;;;;;;;-4.90;1.00;;;;;;5037448;28;19912;-78
2024/01/19 02:21:21;;;;;;;;;;;-5.00;1.00;;;;;;5044810;28;19921;-78
2024/01/19 02:24:04;;;;;;;;;;;-4.90;1.00;;;;;;5051082;28;19935;-78
2024/01/19 02:26:34;;;;;;;;;;;-4.90;1.00;;;;;;5043518;28;19908;-78
2024/01/19 02:29:22;;;;;;;;;;;-4.90;1.00;;;;;;5034491;28;19943;-78
2024/01/19 02:37:53;;;;;;;;;;;-5.00;1.00;;;;;;5048876;28;19912;-78
2024/01/19 02:43:59;;;;;;;;;;;-5.10;1.00;;;;;;5040917;28;20004;-81
2024/01/19 02:46:51;;;;;;;;;;;-5.10;1.00;;;;;;5042571;28;19970;-81
2024/01/19 02:52:20;;;;;;;;;;;-5.20;1.00;;;;;;5037156;28;19987;-81
2024/01/19 02:54:58;;;;;;;;;;;-5.30;1.00;;;;;;5037295;28;19967;-81
2024/01/19 02:57:58;;;;;;;;;;;-5.30;1.00;;;;;;5037435;28;19913;-80
2024/01/19 03:00:34;;;;;;;;;;;-5.30;1.00;;;;;;5046725;28;19909;-77
2024/01/19 03:06:02;;;;;;;;;;;-5.30;1.00;;;;;;5045798;28;19959;-77
2024/01/19 03:14:34;;;;;;;;;;;-5.40;1.00;;;;;;5053931;28;19990;-78
2024/01/19 03:20:02;;;;;;;;;;;-5.50;1.00;;;;;;5037090;28;19939;-77
2024/01/19 03:23:05;;;;;;;;;;;-5.60;1.00;;;;;;5050830;28;19913;-78
2024/01/19 03:25:34;;;;;;;;;;;-5.60;1.00;;;;;;5047344;28;19937;-78
2024/01/19 03:28:04;;;;;;;;;;;-5.60;1.00;;;;;;5034408;28;19935;-81
2024/01/19 03:36:35;;;;;;;;;;;-5.60;1.00;;;;;;5049588;28;19916;-81
2024/01/19 03:39:01;;;;;;;;;;;-5.60;1.00;;;;;;5060547;28;19909;-81
2024/01/19 03:44:30;;;;;;;;;;;-5.60;1.00;;;;;;5038716;28;19916;-78
2024/01/19 03:47:22;;;;;;;;;;;-5.70;1.00;;;;;;5046462;28;20272;-77
2024/01/19 03:52:50;;;;;;;;;;;-5.70;1.00;;;;;;5033278;28;20023;-77
2024/01/19 03:58:18;;;;;;;;;;;-5.70;1.00;;;;;;5046622;28;19980;-81
2024/01/19 04:03:46;;;;;;;;;;;-5.70;1.00;;;;;;5047933;28;19967;-81
2024/01/19 04:09:18;;;;;;;;;;;-5.70;1.00;;;;;;5038649;28;19959;-82
2024/01/19 04:24:28;;;;;;;;;;;-5.60;1.00;;;;;;5049730;28;19920;-82
2024/01/19 04:26:58;;;;;;;;;;;-5.60;1.00;;;;;;5036725;28;19913;-81
2024/01/19 04:38:33;;;;;;;;;;;-5.90;1.00;;;;;;5039011;28;20023;-81
2024/01/19 04:40:58;;;;;;;;;;;-5.90;1.00;;;;;;5045714;28;19951;-81
2024/01/19 04:46:27;;;;;;;;;;;-6.00;1.00;;;;;;5042716;28;19997;-78
2024/01/19 04:49:22;;;;;;;;;;;-5.90;1.00;;;;;;5047480;28;19948;-78
2024/01/19 04:52:10;;;;;;;;;;;-6.00;1.00;;;;;;5044459;28;19996;-78
2024/01/19 04:54:58;;;;;;;;;;;-6.10;1.00;;;;;;5049457;28;19936;-77
2024/01/19 05:00:26;;;;;;;;;;;-6.10;1.00;;;;;;5044475;28;20284;-81
2024/01/19 05:09:28;;;;;;;;;;;-6.10;1.00;;;;;;5049664;28;19916;-81
2024/01/19 05:14:56;;;;;;;;;;;-6.30;1.00;;;;;;5046558;28;20267;-78
2024/01/19 05:33:10;;;;;;;;;;;-6.40;1.00;;;;;;5046451;28;19963;-82
2024/01/19 05:35:40;;;;;;;;;;;-6.40;1.00;;;;;;5053919;28;19909;-84
2024/01/19 05:38:10;;;;;;;;;;;-6.40;1.00;;;;;;5051014;28;20315;-85
2024/01/19 05:46:41;;;;;;;;;;;-6.40;1.00;;;;;;5054891;28;20354;-80
2024/01/19 05:52:10;;;;;;;;;;;-6.40;1.00;;;;;;5040590;28;19916;-80
2024/01/19 05:57:38;;;;;;;;;;;-6.50;1.00;;;;;;5053242;28;19912;-82
2024/01/19 06:00:10;;;;;;;;;;;-6.50;1.00;;;;;;5033723;28;19938;-82
2024/01/19 06:05:39;;;;;;;;;;;-6.60;1.00;;;;;;5040074;28;19994;-82
2024/01/19 06:14:11;;;;;;;;;;;-6.80;1.00;;;;;;5036469;28;19978;-79
2024/01/19 06:19:40;;;;;;;;;;;-6.80;1.00;;;;;;5034340;28;20006;-81
2024/01/19 06:22:10;;;;;;;;;;;-6.80;1.00;;;;;;5037592;28;19909;-82
2024/01/19 06:24:52;;;;;;;;;;;-6.90;1.00;;;;;;5040119;28;19904;-81
2024/01/19 06:27:34;;;;;;;;;;;-6.90;1.00;;;;;;5041091;28;19909;-82
2024/01/19 06:33:09;;;;;;;;;;;-7.00;1.00;;;;;;5051149;28;20011;-81
2024/01/19 06:38:37;;;;;;;;;;;-6.90;1.00;;;;;;5040847;28;19919;-81
2024/01/19 06:41:04;;;;;;;;;;;-6.90;1.00;;;;;;5045587;28;19909;-81
2024/01/19 06:43:30;;;;;;;;;;;-6.90;1.00;;;;;;5050267;28;19909;-81
2024/01/19 06:45:55;;;;;;;;;;;-6.90;1.00;;;;;;5044128;28;19905;-78
2024/01/19 06:48:34;;;;;;;;;;;-6.90;1.00;;;;;;5042981;28;19908;-78
2024/01/19 06:54:06;;;;;;;;;;;-6.70;1.00;;;;;;5034212;28;19912;-78
2024/01/19 06:56:31;;;;;;;;;;;-6.60;1.00;;;;;;5035528;28;20348;-77
2024/01/19 06:59:16;;;;;;;;;;;-6.60;1.00;;;;;;5044706;28;19915;-77
2024/01/19 07:04:45;;;;;;;;;;;-6.60;1.00;;;;;;5035602;28;19931;-77
2024/01/19 07:07:22;;;;;;;;;;;-6.50;1.00;;;;;;5050763;28;19913;-77
2024/01/19 07:09:58;;;;;;;;;;;-6.40;1.00;;;;;;5034248;28;19909;-77
2024/01/19 07:12:24;;;;;;;;;;;-6.40;1.00;;;;;;5034569;28;19916;-77
2024/01/19 07:17:52;;;;;;;;;;;-6.40;1.00;;;;;;5047132;28;19913;-81
2024/01/19 07:20:28;;;;;;;;;;;-6.30;1.00;;;;;;5044699;28;19912;-81
2024/01/19 07:23:16;;;;;;;;;;;-6.10;1.00;;;;;;5041032;28;19980;-81
2024/01/19 07:31:40;;;;;;;;;;;-5.80;1.00;;;;;;5034314;28;19905;-84
2024/01/19 07:37:08;;;;;;;;;;;-5.60;1.00;;;;;;5038745;28;19916;-81
2024/01/19 07:42:37;;;;;;;;;;;-5.50;1.00;;;;;;5035386;28;19915;-81
2024/01/19 07:45:16;;;;;;;;;;;-5.40;1.00;;;;;;5045409;28;20283;-81
2024/01/19 07:47:46;;;;;;;;;;;-5.30;1.00;;;;;;5037378;28;19956;-81
2024/01/19 07:53:16;;;;;;;;;;;-5.20;1.00;;;;;;5037230;28;19987;-81
2024/01/19 08:05:10;;;;;;;;;;;-4.40;1.00;;;;;;5055071;28;19935;-82
2024/01/19 08:13:41;;;;;;;;;;;-3.90;1.00;;;;;;5037013;28;19932;-81
2024/01/19 08:16:34;;;;;;;;;;;-3.70;1.00;;;;;;5049670;28;19916;-77
2024/01/19 08:19:00;;;;;;;;;;;-3.60;1.00;;;;;;5048689;28;20268;-77
2024/01/19 08:21:25;;;;;;;;;;;-3.40;1.00;;;;;;5042454;28;19912;-77
2024/01/19 08:36:04;;;;;;;;;;;-2.90;1.00;;;;;;5039163;28;20507;-81
2024/01/19 08:39:04;;;;;;;;;;;-2.70;1.00;;;;;;5053900;28;19908;-81
2024/01/19 08:47:37;;;;;;;;;;;-2.40;1.00;;;;;;5048984;28;20280;-77
2024/01/19 08:50:10;;;;;;;;;;;-2.30;1.00;;;;;;5039421;28;20036;-77
2024/01/19 08:52:58;;;;;;;;;;;-2.30;1.00;;;;;;5051580;28;19908;-77
2024/01/19 08:55:52;;;;;;;;;;;-2.10;1.00;;;;;;5050446;28;19963;-77
2024/01/19 08:58:29;;;;;;;;;;;-2.10;1.00;;;;;;5052646;28;19908;-77
2024/01/19 09:04:10;;;;;;;;;;;-2.00;1.00;;;;;;5052524;28;19928;-81
2024/01/19 09:06:40;;;;;;;;;;;-2.10;1.00;;;;;;5041914;28;19952;-81
2024/01/19 09:09:28;;;;;;;;;;;-2.10;1.00;;;;;;5041290;28;19909;-81
2024/01/19 09:14:58;;;;;;;;;;;-1.70;1.00;;;;;;5047724;28;19954;-81
2024/01/19 09:23:34;;;;;;;;;;;-1.20;1.00;;;;;;5048305;28;19915;-80
2024/01/19 09:29:08;;;;;;;;;;;-0.50;1.00;;;;;;5054143;28;19966;-81
2024/01/19 09:37:52;;;;;;;;;;;2.10;1.00;;;;;;5051990;28;19911;-77
2024/01/19 09:40:43;;;;;;;;;;;2.20;1.00;;;;;;5048281;28;19948;-77
2024/01/19 09:43:11;;;;;;;;;;;2.30;1.00;;;;;;5049753;28;19940;-78
2024/01/19 09:49:06;;;;;;;;;;;3.30;1.00;;;;;;5050474;28;19915;-77
2024/01/19 09:51:52;;;;;;;;;;;3.40;1.00;;;;;;5026914;28;19932;-77
2024/01/19 09:54:46;;;;;;;;;;;3.20;1.00;;;;;;5022337;28;19920;-77
2024/01/19 10:00:34;;;;;;;;;;;2.60;1.00;;;;;;5012047;28;19972;-77
2024/01/19 10:03:17;;;;;;;;;;;2.80;1.00;;;;;;5006201;28;20003;-80
2024/01/19 10:06:04;;;;;;;;;;;2.70;1.00;;;;;;5013619;28;19918;-80
2024/01/19 10:08:46;;;;;;;;;;;2.30;1.00;;;;;;5018675;28;20392;-77
2024/01/19 10:11:46;;;;;;;;;;;1.90;1.00;;;;;;5013559;28;19909;-79
2024/01/19 10:14:40;;;;;;;;;;;2.50;1.00;;;;;;5013578;28;19911;-79
2024/01/19 10:26:28;;;;;;;;;;;2.50;1.00;;;;;;5012383;28;19960;-80
2024/01/19 10:32:16;;;;;;;;;;;2.30;1.00;;;;;;5049282;28;19958;-82
2024/01/19 10:35:19;;;;;;;;;;;2.20;1.00;;;;;;5038597;28;19905;-81
2024/01/19 10:40:52;;;;;;;;;;;2.00;1.00;;;;;;5051421;28;20360;-81
2024/01/19 10:46:26;;;;;;;;;;;2.20;1.00;;;;;;5047588;28;19916;-81
2024/01/19 10:48:52;;;;;;;;;;;2.20;1.00;;;;;;5029378;28;19909;-78
2024/01/19 10:51:22;;;;;;;;;;;2.10;1.00;;;;;;5045598;28;19912;-76
2024/01/19 10:53:59;;;;;;;;;;;2.20;1.00;;;;;;5048494;28;19913;-77
2024/01/19 10:56:42;;;;;;;;;;;2.00;1.00;;;;;;5045064;28;19913;-77
2024/01/19 10:59:11;;;;;;;;;;;2.00;1.00;;;;;;5048311;28;19908;-77
2024/01/19 11:01:37;;;;;;;;;;;2.00;1.00;;;;;;5051368;28;19919;-76
2024/01/19 11:04:28;;;;;;;;;;;1.80;1.00;;;;;;5043588;28;19905;-76
2024/01/19 11:07:22;;;;;;;;;;;1.70;1.00;;;;;;5045352;28;20431;-76
2024/01/19 11:09:48;;;;;;;;;;;1.50;1.00;;;;;;5041652;28;19913;-75
2024/01/19 11:12:17;;;;;;;;;;;1.50;1.00;;;;;;5040213;28;19905;-76
2024/01/19 11:15:16;;;;;;;;;;;1.40;1.00;;;;;;5044275;28;19982;-75
2024/01/19 11:17:46;;;;;;;;;;;1.30;1.00;;;;;;5046195;28;19963;-77
2024/01/19 11:20:16;;;;;;;;;;;1.10;1.00;;;;;;5047752;28;20403;-75
2024/01/19 11:23:00;;;;;;;;;;;1.60;1.00;;;;;;5046602;28;19919;-75
2024/01/19 11:25:28;;;;;;;;;;;1.80;1.00;;;;;;5048674;28;20245;-74
2024/01/19 11:28:14;;;;;;;;;;;2.10;1.00;;;;;;5048107;28;19913;-76
2024/01/19 11:33:58;;;;;;;;;;;2.40;1.00;;;;;;5055989;28;20433;-76
2024/01/19 11:45:38;;;;;;;;;;;1.80;1.00;;;;;;5041932;28;19920;-76
2024/01/19 11:48:30;;;;;;;;;;;1.80;1.00;;;;;;5037427;28;19909;-76
2024/01/19 11:50:58;;;;;;;;;;;2.10;1.00;;;;;;5042066;28;19904;-76
2024/01/19 11:53:48;;;;;;;;;;;2.30;1.00;;;;;;5057245;28;19911;-76
2024/01/19 11:59:18;;;;;;;;;;;1.80;1.00;;;;;;5046899;28;19912;-76
2024/01/19 12:02:04;;;;;;;;;;;1.70;1.00;;;;;;5043523;28;19904;-76
2024/01/19 12:04:40;;;;;;;;;;;1.90;1.00;;;;;;5045231;28;19909;-76
2024/01/19 12:07:10;;;;;;;;;;;2.00;1.00;;;;;;5044805;28;19908;-76
2024/01/19 12:10:07;;;;;;;;;;;1.60;1.00;;;;;;5051879;28;19931;-76
2024/01/19 12:12:47;;;;;;;;;;;1.60;1.00;;;;;;5026698;28;19905;-77
2024/01/19 12:15:41;;;;;;;;;;;1.60;1.00;;;;;;5033931;28;20051;-76
2024/01/19 12:18:35;;;;;;;;;;;1.90;1.00;;;;;;5035015;28;19909;-76
2024/01/19 12:24:03;;;;;;;;;;;2.10;1.00;;;;;;5033199;28;19912;-77
2024/01/19 12:35:37;;;;;;;;;;;2.50;1.00;;;;;;5031059;28;19919;-74
2024/01/19 12:41:17;;;;;;;;;;;2.90;1.00;;;;;;5028003;28;19916;-77
2024/01/19 12:46:47;;;;;;;;;;;2.70;1.00;;;;;;5033021;28;19916;-77
2024/01/19 12:49:16;;;;;;;;;;;2.80;1.00;;;;;;5037833;28;19909;-79
2024/01/19 12:51:47;;;;;;;;;;;2.50;1.00;;;;;;5045985;28;20271;-77
2024/01/19 12:54:15;;;;;;;;;;;2.40;1.00;;;;;;5050719;28;19915;-77
2024/01/19 13:00:03;;;;;;;;;;;2.10;1.00;;;;;;5045887;28;19924;-77
2024/01/19 13:02:34;;;;;;;;;;;2.20;1.00;;;;;;5052227;28;19952;-77
2024/01/19 13:08:23;;;;;;;;;;;1.80;1.00;;;;;;5051394;28;19939;-79
2024/01/19 13:11:03;;;;;;;;;;;1.80;1.00;;;;;;5039000;28;20003;-79
2024/01/19 13:13:57;;;;;;;;;;;1.80;1.00;;;;;;5056796;28;20054;-80
2024/01/19 13:16:29;;;;;;;;;;;1.50;1.00;;;;;;5055612;28;19909;-79
2024/01/19 13:19:17;;;;;;;;;;;1.80;1.00;;;;;;5055070;28;19996;-79
2024/01/19 13:22:16;;;;;;;;;;;1.80;1.00;;;;;;5047178;28;19966;-79
2024/01/19 13:25:17;;;;;;;;;;;1.90;1.00;;;;;;5053086;28;19905;-79
2024/01/19 13:28:00;;;;;;;;;;;2.20;1.00;;;;;;5055360;28;19936;-79
2024/01/19 13:33:28;;;;;;;;;;;2.50;1.00;;;;;;5051407;28;19955;-80
2024/01/19 13:36:16;;;;;;;;;;;2.40;1.00;;;;;;5048367;28;19909;-79
2024/01/19 13:39:16;;;;;;;;;;;2.50;1.00;;;;;;5054814;28;19944;-79
2024/01/19 13:42:17;;;;;;;;;;;2.60;1.00;;;;;;5040976;28;19916;-79
2024/01/19 13:45:05;;;;;;;;;;;2.60;1.00;;;;;;5044840;28;19909;-80
2024/01/19 13:50:47;;;;;;;;;;;2.60;1.00;;;;;;5037167;28;19963;-79
2024/01/19 13:56:16;;;;;;;;;;;2.80;1.00;;;;;;5034637;28;19920;-79
2024/01/19 13:58:42;;;;;;;;;;;3.00;1.00;;;;;;5035146;28;19905;-79
2024/01/19 14:01:17;;;;;;;;;;;3.00;1.00;;;;;;5034557;28;20004;-79
2024/01/19 14:04:17;;;;;;;;;;;3.30;1.00;;;;;;5033912;28;19939;-79
2024/01/19 14:06:47;;;;;;;;;;;3.40;1.00;;;;;;5039653;28;19958;-76
2024/01/19 14:09:17;;;;;;;;;;;3.60;1.00;;;;;;5043529;28;19909;-77
2024/01/19 14:12:17;;;;;;;;;;;3.70;1.00;;;;;;5043554;28;19905;-77
2024/01/19 14:15:18;;;;;;;;;;;3.90;1.00;;;;;;5038077;28;20427;-77
2024/01/19 14:18:17;;;;;;;;;;;3.90;1.00;;;;;;5041229;28;20361;-77
2024/01/19 14:20:47;;;;;;;;;;;4.00;1.00;;;;;;5045530;28;19917;-77
2024/01/19 14:23:17;;;;;;;;;;;4.10;1.00;;;;;;5034562;28;19912;-77
2024/01/19 14:26:16;;;;;;;;;;;4.10;1.00;;;;;;5034833;28;20387;-77
2024/01/19 14:29:05;;;;;;;;;;;4.00;1.00;;;;;;5034721;28;19916;-77
2024/01/19 14:31:41;;;;;;;;;;;4.10;1.00;;;;;;5035620;28;19916;-77
2024/01/19 14:34:17;;;;;;;;;;;4.00;1.00;;;;;;5040812;28;19963;-77
2024/01/19 14:36:46;;;;;;;;;;;3.90;1.00;;;;;;5034732;28;20011;-77
2024/01/19 14:39:17;;;;;;;;;;;3.60;1.00;;;;;;5048018;28;19909;-77
2024/01/19 14:41:47;;;;;;;;;;;3.40;1.00;;;;;;5034373;28;20348;-77
2024/01/19 14:44:29;;;;;;;;;;;3.50;1.00;;;;;;5040046;28;19913;-77
2024/01/19 14:53:11;;;;;;;;;;;2.70;1.00;;;;;;5045085;28;20279;-81
2024/01/19 14:55:46;;;;;;;;;;;2.40;1.00;;;;;;5048226;28;19932;-79
2024/01/19 14:58:29;;;;;;;;;;;2.30;1.00;;;;;;5047359;28;19905;-79
2024/01/19 15:10:17;;;;;;;;;;;1.80;1.00;;;;;;5039416;28;19932;-77
2024/01/19 15:16:16;;;;;;;;;;;1.60;1.00;;;;;;5034006;28;20379;-77
2024/01/19 15:18:47;;;;;;;;;;;1.40;1.00;;;;;;5043386;28;19904;-77
2024/01/19 15:21:17;;;;;;;;;;;1.30;1.00;;;;;;5050423;28;19913;-78
2024/01/19 15:23:43;;;;;;;;;;;1.20;1.00;;;;;;5043296;28;20280;-79
2024/01/19 15:26:19;;;;;;;;;;;1.20;1.00;;;;;;5041448;28;19971;-79
2024/01/19 15:28:48;;;;;;;;;;;1.10;1.00;;;;;;5045069;28;20249;-80
2024/01/19 15:31:46;;;;;;;;;;;1.10;1.00;;;;;;5046999;28;19996;-79
2024/01/19 15:34:47;;;;;;;;;;;0.90;1.00;;;;;;5033812;28;19912;-79
2024/01/19 15:37:46;;;;;;;;;;;0.90;1.00;;;;;;5045364;28;20377;-79
2024/01/19 15:40:17;;;;;;;;;;;0.80;1.00;;;;;;5033952;28;19905;-79
2024/01/19 15:42:47;;;;;;;;;;;0.80;1.00;;;;;;5041141;28;19984;-79
2024/01/19 15:45:17;;;;;;;;;;;0.70;1.00;;;;;;5053795;28;19942;-79
2024/01/19 15:48:16;;;;;;;;;;;0.60;1.00;;;;;;5042175;28;19916;-79
2024/01/19 15:50:59;;;;;;;;;;;0.70;1.00;;;;;;5039014;28;19904;-79
2024/01/19 15:53:47;;;;;;;;;;;0.70;1.00;;;;;;5040164;28;20357;-77
2024/01/19 15:56:47;;;;;;;;;;;0.60;1.00;;;;;;5042760;28;19909;-77
2024/01/19 15:59:17;;;;;;;;;;;0.60;1.00;;;;;;5034235;28;20365;-77
2024/01/19 16:01:53;;;;;;;;;;;0.60;1.00;;;;;;5049886;28;19909;-77
2024/01/19 16:04:47;;;;;;;;;;;0.60;1.00;;;;;;5054125;28;20356;-77
2024/01/19 16:07:17;;;;;;;;;;;0.70;1.00;;;;;;5057548;28;19904;-79
2024/01/19 16:10:11;;;;;;;;;;;0.60;1.00;;;;;;5041506;28;20407;-79
2024/01/19 16:12:47;;;;;;;;;;;0.60;1.00;;;;;;5049527;28;19905;-80
2024/01/19 16:15:18;;;;;;;;;;;0.60;1.00;;;;;;5049382;28;20002;-79
2024/01/19 16:17:47;;;;;;;;;;;0.60;1.00;;;;;;5037997;28;19905;-79
2024/01/19 16:20:12;;;;;;;;;;;0.70;1.00;;;;;;5052583;28;19924;-78
2024/01/19 16:22:47;;;;;;;;;;;0.70;1.00;;;;;;5038465;28;19909;-76
2024/01/19 16:25:47;;;;;;;;;;;0.70;1.00;;;;;;5048150;28;19911;-77
2024/01/19 16:28:17;;;;;;;;;;;0.80;1.00;;;;;;5056906;28;19905;-76
2024/01/19 16:30:47;;;;;;;;;;;0.60;1.00;;;;;;5038744;28;20002;-76
2024/01/19 16:33:23;;;;;;;;;;;0.60;1.00;;;;;;5036847;28;19905;-76
2024/01/19 16:36:17;;;;;;;;;;;0.70;1.00;;;;;;5036313;28;19916;-77
2024/01/19 16:39:17;;;;;;;;;;;0.70;1.00;;;;;;5049630;28;19905;-79
2024/01/19 16:42:17;;;;;;;;;;;0.70;1.00;;;;;;5052124;28;20383;-79
2024/01/19 16:44:59;;;;;;;;;;;0.70;1.00;;;;;;5036619;28;20348;-79
2024/01/19 16:47:46;;;;;;;;;;;0.60;1.00;;;;;;5049822;28;20002;-79
2024/01/19 16:50:47;;;;;;;;;;;0.60;1.00;;;;;;5038009;28;19905;-79
2024/01/19 16:56:47;;;;;;;;;;;0.60;1.00;;;;;;5043772;28;20000;-77
2024/01/19 16:59:17;;;;;;;;;;;0.50;1.00;;;;;;5045456;28;19905;-77
2024/01/19 17:02:16;;;;;;;;;;;0.60;1.00;;;;;;5043022;28;19905;-77
2024/01/19 17:04:53;;;;;;;;;;;0.60;1.00;;;;;;5042810;28;19959;-76
2024/01/19 17:07:47;;;;;;;;;;;0.50;1.00;;;;;;5054735;28;19920;-76
2024/01/19 17:13:47;;;;;;;;;;;0.50;1.00;;;;;;5049333;28;20589;-76
2024/01/19 17:16:17;;;;;;;;;;;0.30;1.00;;;;;;5041838;28;19956;-77
2024/01/19 17:21:47;;;;;;;;;;;0.20;1.00;;;;;;5056266;28;20010;-76
2024/01/19 17:24:17;;;;;;;;;;;0.10;1.00;;;;;;5055218;28;19904;-79
2024/01/19 17:27:17;;;;;;;;;;;0.00;1.00;;;;;;5037546;28;19932;-80
2024/01/19 17:29:47;;;;;;;;;;;-0.10;1.00;;;;;;5043414;28;19912;-79
2024/01/19 17:32:17;;;;;;;;;;;-0.10;1.00;;;;;;5036546;28;19909;-79
2024/01/19 17:34:47;;;;;;;;;;;-0.20;1.00;;;;;;5042923;28;19905;-80
2024/01/19 17:37:17;;;;;;;;;;;-0.30;1.00;;;;;;5051927;28;20007;-79
2024/01/19 17:39:47;;;;;;;;;;;-0.20;1.00;;;;;;5035813;28;19952;-76
2024/01/19 17:42:47;;;;;;;;;;;-0.20;1.00;;;;;;5051981;28;19916;-81
2024/01/19 17:45:17;;;;;;;;;;;-0.30;1.00;;;;;;5043118;28;19916;-80
2024/01/19 17:47:50;;;;;;;;;;;-0.40;1.00;;;;;;5044500;28;19978;-80
2024/01/19 17:50:17;;;;;;;;;;;-0.20;1.00;;;;;;5035594;28;19916;-79
2024/01/19 17:52:48;;;;;;;;;;;-0.20;1.00;;;;;;5044948;28;19904;-79
2024/01/19 17:55:17;;;;;;;;;;;-0.10;1.00;;;;;;5052071;28;19909;-78
2024/01/19 17:58:20;;;;;;;;;;;0.00;1.00;;;;;;5035530;28;19909;-78
2024/01/19 18:01:17;;;;;;;;;;;0.00;1.00;;;;;;5055288;28;19967;-77
2024/01/19 18:03:47;;;;;;;;;;;0.00;1.00;;;;;;5049116;28;19905;-79
2024/01/19 18:06:17;;;;;;;;;;;0.00;1.00;;;;;;5034798;28;20055;-79
2024/01/19 18:08:47;;;;;;;;;;;0.00;1.00;;;;;;5055398;28;19904;-79
2024/01/19 18:11:48;;;;;;;;;;;0.00;1.00;;;;;;5049535;28;19915;-76
2024/01/19 18:14:47;;;;;;;;;;;0.00;1.00;;;;;;5051417;28;19958;-76
2024/01/19 18:17:17;;;;;;;;;;;0.00;1.00;;;;;;5050604;28;19919;-76
2024/01/19 18:19:42;;;;;;;;;;;0.00;1.00;;;;;;5041221;28;19916;-84
2024/01/19 18:25:11;;;;;;;;;;;0.00;1.00;;;;;;5034824;28;19912;-84
2024/01/19 18:27:37;;;;;;;;;;;0.10;1.00;;;;;;5043812;28;19912;-80
2024/01/19 18:30:23;;;;;;;;;;;0.10;1.00;;;;;;5034170;28;19905;-80
2024/01/19 18:33:17;;;;;;;;;;;0.20;1.00;;;;;;5047487;28;19909;-78
2024/01/19 18:35:43;;;;;;;;;;;0.20;1.00;;;;;;5049575;28;19940;-79
2024/01/19 18:38:08;;;;;;;;;;;0.20;1.00;;;;;;5045059;28;19913;-76
2024/01/19 18:40:47;;;;;;;;;;;0.30;1.00;;;;;;5034687;28;19905;-80
2024/01/19 18:43:13;;;;;;;;;;;0.30;1.00;;;;;;5038491;28;19916;-77
2024/01/19 18:45:47;;;;;;;;;;;0.20;1.00;;;;;;5034303;28;19913;-78
2024/01/19 18:48:47;;;;;;;;;;;0.10;1.00;;;;;;5034125;28;19915;-78
2024/01/19 18:51:20;;;;;;;;;;;0.10;1.00;;;;;;5046564;28;19909;-77
2024/01/19 18:53:47;;;;;;;;;;;0.00;1.00;;;;;;5053832;28;19911;-77
2024/01/19 18:56:18;;;;;;;;;;;-0.10;1.00;;;;;;5034154;28;19909;-76
2024/01/19 19:01:47;;;;;;;;;;;-0.20;1.00;;;;;;5040540;28;19955;-78
2024/01/19 19:04:17;;;;;;;;;;;-0.10;1.00;;;;;;5038966;28;19909;-80
2024/01/19 19:06:47;;;;;;;;;;;-0.10;1.00;;;;;;5033823;28;19932;-77
2024/01/19 19:09:47;;;;;;;;;;;-0.10;1.00;;;;;;5042174;28;19905;-81
2024/01/19 19:12:17;;;;;;;;;;;-0.10;1.00;;;;;;5040007;28;19913;-79
2024/01/19 19:14:47;;;;;;;;;;;-0.10;1.00;;;;;;5035808;28;19909;-80
2024/01/19 19:17:17;;;;;;;;;;;-0.10;1.00;;;;;;5034486;28;20004;-84
2024/01/19 19:19:47;;;;;;;;;;;-0.10;1.00;;;;;;5046189;28;19916;-85
2024/01/19 19:22:19;;;;;;;;;;;-0.10;1.00;;;;;;5053529;28;19912;-87
2024/01/19 19:24:47;;;;;;;;;;;-0.10;1.00;;;;;;5049084;28;20386;-80
2024/01/19 19:27:17;;;;;;;;;;;-0.20;1.00;;;;;;5033851;28;19905;-81
2024/01/19 19:29:47;;;;;;;;;;;-0.20;1.00;;;;;;5050047;28;19911;-80
2024/01/19 19:32:12;;;;;;;;;;;-0.10;1.00;;;;;;5050350;28;20504;-80
2024/01/19 19:34:47;;;;;;;;;;;0.00;1.00;;;;;;5037850;28;19919;-80
2024/01/19 19:37:13;;;;;;;;;;;0.00;1.00;;;;;;5049179;28;19913;-81
2024/01/19 19:39:41;;;;;;;;;;;0.00;1.00;;;;;;5035408;28;19962;-81
2024/01/19 19:42:11;;;;;;;;;;;0.10;1.00;;;;;;5051414;28;20252;-81
2024/01/19 19:44:47;;;;;;;;;;;0.10;1.00;;;;;;5038601;28;19917;-81
2024/01/19 19:47:13;;;;;;;;;;;0.10;1.00;;;;;;5052390;28;20326;-81
2024/01/19 19:49:54;;;;;;;;;;;0.10;1.00;;;;;;5037734;28;19916;-81
2024/01/19 19:52:47;;;;;;;;;;;0.10;1.00;;;;;;5046045;28;19940;-81
2024/01/19 19:55:17;;;;;;;;;;;0.10;1.00;;;;;;5053282;28;19967;-81
2024/01/19 19:57:47;;;;;;;;;;;0.00;1.00;;;;;;5036234;28;19909;-81
2024/01/19 20:00:17;;;;;;;;;;;-0.20;1.00;;;;;;5052387;28;19909;-81
2024/01/19 20:02:47;;;;;;;;;;;-0.20;1.00;;;;;;5046114;28;19912;-81
2024/01/19 20:05:47;;;;;;;;;;;-0.10;1.00;;;;;;5036164;28;20000;-81
2024/01/19 20:08:17;;;;;;;;;;;-0.10;1.00;;;;;;5038223;28;19948;-81
2024/01/19 20:10:47;;;;;;;;;;;-0.10;1.00;;;;;;5057912;28;20271;-81
2024/01/19 20:13:17;;;;;;;;;;;-0.10;1.00;;;;;;5052766;28;19905;-81
2024/01/19 20:15:47;;;;;;;;;;;-0.10;1.00;;;;;;5056542;28;19919;-82
2024/01/19 20:18:17;;;;;;;;;;;0.00;1.00;;;;;;5037365;28;19909;-81
2024/01/19 20:20:47;;;;;;;;;;;0.00;1.00;;;;;;5049895;28;19913;-81
2024/01/19 20:23:29;;;;;;;;;;;0.00;1.00;;;;;;5055006;28;19999;-81
2024/01/19 20:26:17;;;;;;;;;;;-0.10;1.00;;;;;;5054549;28;19908;-77
2024/01/19 20:28:59;;;;;;;;;;;-0.10;1.00;;;;;;5048009;28;19913;-77
2024/01/19 20:31:47;;;;;;;;;;;-0.10;1.00;;;;;;5037781;28;19909;-76
2024/01/19 20:34:17;;;;;;;;;;;-0.10;1.00;;;;;;5046210;28;19908;-76
2024/01/19 20:37:05;;;;;;;;;;;-0.20;1.00;;;;;;5044106;28;19920;-76
2024/01/19 20:39:47;;;;;;;;;;;-0.20;1.00;;;;;;5037289;28;19906;-83
2024/01/19 20:42:17;;;;;;;;;;;-0.20;1.00;;;;;;5036002;28;19948;-82
2024/01/19 20:44:47;;;;;;;;;;;-0.30;1.00;;;;;;5050795;28;19913;-81
2024/01/19 20:47:17;;;;;;;;;;;-0.30;1.00;;;;;;5049395;28;19904;-81
2024/01/19 20:49:47;;;;;;;;;;;-0.30;1.00;;;;;;5036526;28;20406;-81
2024/01/19 20:52:47;;;;;;;;;;;-0.40;1.00;;;;;;5048705;28;20422;-81
2024/01/19 20:55:17;;;;;;;;;;;-0.50;1.00;;;;;;5035565;28;20000;-76
2024/01/19 20:57:47;;;;;;;;;;;-0.50;1.00;;;;;;5044895;28;19916;-76
2024/01/19 21:00:17;;;;;;;;;;;-0.50;1.00;;;;;;5046701;28;19909;-77
2024/01/19 21:02:47;;;;;;;;;;;-0.60;1.00;;;;;;5036470;28;19974;-77
2024/01/19 21:05:18;;;;;;;;;;;-0.70;1.00;;;;;;5049004;28;19909;-77
2024/01/19 21:08:05;;;;;;;;;;;-0.80;1.00;;;;;;5037710;28;19909;-76
2024/01/19 21:10:47;;;;;;;;;;;-0.90;1.00;;;;;;5040648;28;19905;-81
2024/01/19 21:13:17;;;;;;;;;;;-1.10;1.00;;;;;;5054726;28;20042;-82
2024/01/19 21:15:47;;;;;;;;;;;-1.20;1.00;;;;;;5056036;28;20038;-81
2024/01/19 21:18:17;;;;;;;;;;;-1.30;1.00;;;;;;5037763;28;19909;-81
2024/01/19 21:20:47;;;;;;;;;;;-1.40;1.00;;;;;;5042476;28;19911;-81
2024/01/19 21:23:47;;;;;;;;;;;-1.40;1.00;;;;;;5046582;28;20320;-81
2024/01/19 21:26:23;;;;;;;;;;;-1.50;1.00;;;;;;5052958;28;19905;-77
2024/01/19 21:29:17;;;;;;;;;;;-1.70;1.00;;;;;;5046333;28;19913;-76
2024/01/19 21:31:47;;;;;;;;;;;-1.80;1.00;;;;;;5036550;28;19971;-76
2024/01/19 21:34:17;;;;;;;;;;;-2.00;1.00;;;;;;5038271;28;20383;-76
2024/01/19 21:39:47;;;;;;;;;;;-2.30;1.00;;;;;;5040425;28;19915;-77
2024/01/19 21:42:17;;;;;;;;;;;-2.40;1.00;;;;;;5049208;28;19909;-76
2024/01/19 21:44:47;;;;;;;;;;;-2.50;1.00;;;;;;5051193;28;19913;-77
2024/01/19 21:47:17;;;;;;;;;;;-2.60;1.00;;;;;;5071756;28;19976;-77
2024/01/19 21:49:51;;;;;;;;;;;-2.70;1.00;;;;;;5044173;28;19905;-77
2024/01/19 21:52:47;;;;;;;;;;;-2.90;1.00;;;;;;5053269;28;19955;-77
2024/01/19 21:55:17;;;;;;;;;;;-2.90;1.00;;;;;;5052356;28;19905;-78
2024/01/19 21:57:47;;;;;;;;;;;-3.00;1.00;;;;;;5049140;28;19962;-77
2024/01/19 22:00:17;;;;;;;;;;;-3.00;1.00;;;;;;5037431;28;19983;-77
2024/01/19 22:02:48;;;;;;;;;;;-3.20;1.00;;;;;;5038306;28;19912;-76
2024/01/19 22:05:17;;;;;;;;;;;-3.20;1.00;;;;;;5055032;28;19905;-76
2024/01/19 22:07:47;;;;;;;;;;;-3.20;1.00;;;;;;5035047;28;19915;-77